Observations for CRANFIELD, United Kingdom (EGTC)

EGTC 241620Z 22017KT 6000 BKN009 13/12 Q1008
EGTC 241550Z 21018KT 6000 BKN010 13/12 Q1008
EGTC 241520Z 19015KT 5000 -RADZ SCT007 BKN017 13/12 Q1009   
EGTC 241450Z 21016KT 4000 -RADZ FEW011 BKN020 13/11 Q1009   
EGTC 241420Z 21019KT 4000 -RADZ BKN020 13/11 Q1010  
EGTC 241350Z 18010KT 9999 SCT040 14/10 Q1011
EGTC 241320Z 18009KT 9999 -RA FEW015 BKN045 13/09 Q1011 
EGTC 241250Z 21011KT 9999 SCT015 13/10 Q1012
EGTC 241220Z 22012KT 9999 SCT015 13/10 Q1013
EGTC 241120Z 22009KT 9999 SCT014 12/10 Q1013
EGTC 241050Z 23008KT 9999 -RA FEW011 11/10 Q1014
EGTC 241020Z 22009KT 9999 FEW013 11/10 Q1014
EGTC 240950Z 22009KT 9999 FEW012 11/10 Q1014
EGTC 240920Z 22010KT 7000 -RA FEW019 11/10 Q1014
EGTC 240850Z 24008KT 7000 -RA FEW020 11/10 Q1014
EGTC 240820Z 23008KT 9999 FEW020 11/09 Q1014
EGTC 240750Z 25010KT 9999 FEW013 11/09 Q1014
EGTC 240720Z 24009KT 9999 FEW012 11/09 Q1014
EGTC 240650Z 24010KT 9999 FEW011 11/09 Q1014
EGTC 240620Z 24010KT 9999 FEW011 11/09 Q1014